createdAt,value
2018-02-08T00:00:38.751Z,59.40
2018-02-08T00:03:06.342Z,59.80
2018-02-08T00:05:33.944Z,61.42
2018-02-08T00:08:02.338Z,61.75
2018-02-08T00:10:29.936Z,59.28
2018-02-08T00:12:57.530Z,59.45
2018-02-08T00:15:25.126Z,62.83
2018-02-08T00:17:53.486Z,60.80
2018-02-08T00:20:21.074Z,60.85
2018-02-08T00:22:49.430Z,62.65
2018-02-08T00:25:17.018Z,62.33
2018-02-08T00:27:45.374Z,61.42
2018-02-08T00:30:12.962Z,63.33
2018-02-08T00:32:40.607Z,64.68
2018-02-08T00:35:08.196Z,62.85
2018-02-08T00:37:36.006Z,67.72
2018-02-08T00:40:03.627Z,63.92
2018-02-08T00:42:31.994Z,64.53
2018-02-08T00:44:59.585Z,66.78
2018-02-08T00:47:27.943Z,63.70
2018-02-08T00:49:55.534Z,64.82
2018-02-08T00:52:23.887Z,66.80
2018-02-08T00:54:51.486Z,68.78
2018-02-08T00:57:19.079Z,67.37
2018-02-08T00:59:46.670Z,68.18
2018-02-08T01:02:15.255Z,65.20
2018-02-08T01:04:42.850Z,68.82
2018-02-08T01:07:11.239Z,69.28
2018-02-08T01:09:39.602Z,65.20
2018-02-08T01:12:07.334Z,66.37
2018-02-08T01:14:34.922Z,68.35
2018-02-08T01:17:02.514Z,66.47
2018-02-08T01:19:30.874Z,67.68
2018-02-08T01:21:58.466Z,64.45
2018-02-08T01:24:26.826Z,68.78
2018-02-08T01:26:54.410Z,68.75
2018-02-08T01:29:22.039Z,68.15
2018-02-08T01:31:49.634Z,70.10
2018-02-08T01:34:18.010Z,70.75
2018-02-08T01:36:46.370Z,69.18
2018-02-08T01:39:13.965Z,67.30
2018-02-08T01:41:42.337Z,68.35
2018-02-08T01:44:09.931Z,70.70
2018-02-08T01:46:37.521Z,69.20
2018-02-08T01:49:05.151Z,70.53
2018-02-08T01:51:32.792Z,66.22
2018-02-08T01:54:00.382Z,69.55
2018-02-08T01:56:28.735Z,66.90
2018-02-08T01:58:56.326Z,64.30
2018-02-08T02:01:24.678Z,63.33
2018-02-08T02:03:52.275Z,63.17
2018-02-08T02:06:20.639Z,61.70
2018-02-08T02:08:48.238Z,57.83
2018-02-08T02:11:15.830Z,59.17
2018-02-08T02:13:43.422Z,57.25
2018-02-08T02:16:11.010Z,57.60
2018-02-08T02:18:39.367Z,57.95
2018-02-08T02:21:06.958Z,56.92
2018-02-08T02:23:35.314Z,56.33
2018-02-08T02:26:02.902Z,54.00
2018-02-08T02:28:31.254Z,56.90
2018-02-08T02:30:58.855Z,57.97
2018-02-08T02:33:27.215Z,54.80
2018-02-08T02:35:54.814Z,57.67
2018-02-08T02:38:22.407Z,56.47
2018-02-08T02:40:49.994Z,57.62
2018-02-08T02:43:17.587Z,56.35
2018-02-08T02:45:45.227Z,62.28
2018-02-08T02:48:12.826Z,64.68
2018-02-08T02:50:41.247Z,63.83
2018-02-08T02:53:08.840Z,61.72
2018-02-08T02:55:36.440Z,66.90
2018-02-08T02:58:04.838Z,64.90
2018-02-08T03:00:32.434Z,65.95
2018-02-08T03:03:00.029Z,65.20
2018-02-08T03:05:27.623Z,62.88
2018-02-08T03:07:55.977Z,65.37
2018-02-08T03:10:23.566Z,66.00
2018-02-08T03:12:51.922Z,65.30
2018-02-08T03:15:19.566Z,65.47
2018-02-08T03:17:48.172Z,64.87
2018-02-08T03:20:15.771Z,64.25
2018-02-08T03:22:44.129Z,64.05
2018-02-08T03:25:11.728Z,63.50
2018-02-08T03:27:39.371Z,65.75
2018-02-08T03:30:06.980Z,63.65
2018-02-08T03:32:34.615Z,63.10
2018-02-08T03:35:03.019Z,62.62
2018-02-08T03:37:30.616Z,61.92
2018-02-08T03:39:58.215Z,63.40
2018-02-08T03:42:26.570Z,63.63
2018-02-08T03:44:54.159Z,64.10
2018-02-08T03:47:21.759Z,61.03
2018-02-08T03:49:49.354Z,60.22
2018-02-08T03:52:16.961Z,63.95
2018-02-08T03:54:45.324Z,60.17
2018-02-08T03:57:12.959Z,64.65
2018-02-08T03:59:40.551Z,60.55
2018-02-08T04:02:08.148Z,59.63
2018-02-08T04:04:36.541Z,61.35
2018-02-08T04:07:04.131Z,58.72
2018-02-08T04:09:31.723Z,57.70
2018-02-08T04:11:59.378Z,58.80
2018-02-08T04:14:26.971Z,61.25
2018-02-08T04:16:54.572Z,60.08
2018-02-08T04:19:22.219Z,62.75
2018-02-08T04:21:50.570Z,61.97
2018-02-08T04:24:18.159Z,59.92
2018-02-08T04:26:45.755Z,61.45
2018-02-08T04:29:13.355Z,60.38
2018-02-08T04:31:40.948Z,61.00
2018-02-08T04:34:08.562Z,59.10
2018-02-08T04:36:36.159Z,61.13
2018-02-08T04:39:15.312Z,63.40
2018-02-08T04:41:55.357Z,59.42
2018-02-08T04:44:34.666Z,58.92
2018-02-08T04:47:13.913Z,57.67
2018-02-08T04:49:41.508Z,58.47
2018-02-08T04:52:09.098Z,58.67
2018-02-08T04:54:36.691Z,58.85
2018-02-08T04:57:04.277Z,60.40
2018-02-08T04:59:31.873Z,64.25
2018-02-08T05:02:00.372Z,62.10
2018-02-08T05:04:27.960Z,60.58
2018-02-08T05:06:55.555Z,59.53
2018-02-08T05:09:23.920Z,58.95
2018-02-08T05:11:51.517Z,58.42
2018-02-08T05:14:19.873Z,61.00
2018-02-08T05:16:47.475Z,59.53
2018-02-08T05:19:15.070Z,60.28
2018-02-08T05:21:42.715Z,60.83
2018-02-08T05:24:10.310Z,60.65
2018-02-08T05:26:37.978Z,63.08
2018-02-08T05:29:05.575Z,64.37
2018-02-08T05:31:33.182Z,61.97
2018-02-08T05:34:00.776Z,60.88
2018-02-08T05:36:28.371Z,63.05
2018-02-08T05:38:55.971Z,61.10
2018-02-08T05:41:23.562Z,63.10
2018-02-08T05:43:51.199Z,60.53
2018-02-08T05:46:18.786Z,66.20
2018-02-08T05:48:46.382Z,65.47
2018-02-08T05:51:13.966Z,61.20
2018-02-08T05:53:42.577Z,62.80
2018-02-08T05:56:10.428Z,62.88
2018-02-08T05:58:38.786Z,60.47
2018-02-08T06:01:06.382Z,65.10
2018-02-08T06:03:34.746Z,65.57
2018-02-08T06:06:02.339Z,62.50
2018-02-08T06:08:30.699Z,63.83
2018-02-08T06:10:58.290Z,63.87
2018-02-08T06:13:25.879Z,60.75
2018-02-08T06:15:53.466Z,61.55
2018-02-08T06:18:21.059Z,60.12
2018-02-08T06:20:48.657Z,62.25
2018-02-08T06:23:16.255Z,60.80
2018-02-08T06:25:43.846Z,62.85
2018-02-08T06:28:11.445Z,58.65
2018-02-08T06:30:39.039Z,62.17
2018-02-08T06:33:06.635Z,57.60
2018-02-08T06:35:34.225Z,59.72
2018-02-08T06:38:02.590Z,57.20
2018-02-08T06:40:30.247Z,55.85
2018-02-08T06:42:57.843Z,52.80
2018-02-08T06:45:26.203Z,55.15
2018-02-08T06:47:53.799Z,54.75
2018-02-08T06:50:21.390Z,54.92
2018-02-08T06:52:48.980Z,55.08
2018-02-08T06:55:16.579Z,53.13
2018-02-08T06:57:44.938Z,51.70
2018-02-08T07:00:12.552Z,51.63
2018-02-08T07:02:40.144Z,48.45
2018-02-08T07:05:07.739Z,62.03
2018-02-08T07:07:35.335Z,49.72
2018-02-08T07:10:02.927Z,47.22
2018-02-08T07:12:30.518Z,46.10
2018-02-08T07:14:58.115Z,49.85
2018-02-08T07:17:26.519Z,54.50
2018-02-08T07:19:54.119Z,55.33
2018-02-08T07:22:21.713Z,56.45
2018-02-08T07:24:49.327Z,52.88
2018-02-08T07:27:16.915Z,52.78
2018-02-08T07:29:44.509Z,51.35
2018-02-08T07:32:12.143Z,51.67
2018-02-08T07:34:39.749Z,53.47
2018-02-08T07:37:08.116Z,53.40
2018-02-08T07:39:35.714Z,50.03
2018-02-08T07:42:03.310Z,53.33
2018-02-08T07:44:30.899Z,60.40
2018-02-08T07:46:58.492Z,59.78
2018-02-08T07:49:26.859Z,62.58
2018-02-08T07:51:54.465Z,56.65
2018-02-08T07:54:22.063Z,51.72
2018-02-08T07:56:49.662Z,51.63
2018-02-08T07:59:17.258Z,50.60
2018-02-08T08:01:44.898Z,53.58
2018-02-08T08:04:13.302Z,54.60
2018-02-08T08:06:40.910Z,53.22
2018-02-08T08:09:08.533Z,55.90
2018-02-08T08:11:36.182Z,53.47
2018-02-08T08:14:04.538Z,52.47
2018-02-08T08:16:32.175Z,55.55
2018-02-08T08:18:59.774Z,57.35
2018-02-08T08:21:27.372Z,52.17
2018-02-08T08:23:54.965Z,55.58
2018-02-08T08:26:22.554Z,55.30
2018-02-08T08:28:50.146Z,55.95
2018-02-08T08:31:17.747Z,54.78
2018-02-08T08:33:45.353Z,56.33
2018-02-08T08:36:12.955Z,56.97
2018-02-08T08:38:41.317Z,54.70
2018-02-08T08:41:08.914Z,55.92
2018-02-08T08:43:36.510Z,57.45
2018-02-08T08:46:04.138Z,55.35
2018-02-08T08:48:32.528Z,54.67
2018-02-08T08:51:00.135Z,57.72
2018-02-08T08:53:27.777Z,56.13
2018-02-08T08:55:55.427Z,60.75
2018-02-08T08:58:23.019Z,62.33
2018-02-08T09:00:50.623Z,59.70
2018-02-08T09:03:18.219Z,56.30
2018-02-08T09:05:45.862Z,53.97
2018-02-08T09:08:13.498Z,57.20
2018-02-08T09:10:41.100Z,57.40
2018-02-08T09:13:09.468Z,56.20
2018-02-08T09:15:37.066Z,57.33
2018-02-08T09:18:04.664Z,56.70
2018-02-08T09:20:32.266Z,54.50
2018-02-08T09:22:59.918Z,55.72
2018-02-08T09:25:27.518Z,53.08
2018-02-08T09:27:55.879Z,56.13
2018-02-08T09:30:23.470Z,53.00
2018-02-08T09:32:51.064Z,54.67
2018-02-08T09:35:18.662Z,53.22
2018-02-08T09:37:46.255Z,49.55
2018-02-08T09:40:14.627Z,53.47
2018-02-08T09:42:42.219Z,49.15
2018-02-08T09:45:09.812Z,51.70
2018-02-08T09:47:37.411Z,53.85
2018-02-08T09:50:05.002Z,52.85
2018-02-08T09:52:33.404Z,51.35
2018-02-08T09:55:00.998Z,52.53
2018-02-08T09:57:28.585Z,52.25
2018-02-08T09:59:56.218Z,55.08
2018-02-08T10:02:23.810Z,47.28
2018-02-08T10:04:51.409Z,52.97
2018-02-08T10:07:19.766Z,54.20
2018-02-08T10:09:47.359Z,52.03
2018-02-08T10:12:15.726Z,52.20
2018-02-08T10:14:43.322Z,52.78
2018-02-08T10:17:10.914Z,54.40
2018-02-08T10:19:38.499Z,52.05
2018-02-08T10:22:06.095Z,52.62
2018-02-08T10:24:34.476Z,52.03
2018-02-08T10:27:02.846Z,53.33
2018-02-08T10:29:30.445Z,54.30
2018-02-08T10:31:58.078Z,52.53
2018-02-08T10:34:27.672Z,51.45
2018-02-08T10:36:55.270Z,53.90
2018-02-08T10:39:22.872Z,50.30
2018-02-08T10:41:50.495Z,48.35
2018-02-08T10:44:18.846Z,52.45
2018-02-08T10:46:46.439Z,49.70
2018-02-08T10:49:14.043Z,48.92
2018-02-08T10:51:41.633Z,48.33
2018-02-08T10:54:09.220Z,50.45
2018-02-08T10:56:36.818Z,48.95
2018-02-08T10:59:04.434Z,54.45
2018-02-08T11:01:32.022Z,51.30
2018-02-08T11:03:59.624Z,47.53
2018-02-08T11:06:27.223Z,48.53
2018-02-08T11:08:54.814Z,48.28
2018-02-08T11:11:22.407Z,40.63
2018-02-08T11:13:50.000Z,49.65
2018-02-08T11:16:17.604Z,44.15
2018-02-08T11:18:45.199Z,41.92
2018-02-08T11:21:12.797Z,42.60
2018-02-08T11:23:40.381Z,43.05
2018-02-08T11:26:08.027Z,39.45
2018-02-08T11:28:35.618Z,42.72
2018-02-08T11:31:03.218Z,45.17
2018-02-08T11:33:31.571Z,43.45
2018-02-08T11:35:59.211Z,44.65
2018-02-08T11:38:26.807Z,42.72
2018-02-08T11:40:54.391Z,43.97
2018-02-08T11:43:22.756Z,45.30
2018-02-08T11:45:50.346Z,41.08
2018-02-08T11:48:17.934Z,44.90
2018-02-08T11:50:45.527Z,38.20
2018-02-08T11:53:13.119Z,47.53
2018-02-08T11:55:40.707Z,42.53
2018-02-08T11:58:08.318Z,43.72
2018-02-08T12:00:35.916Z,42.78
2018-02-08T12:03:03.521Z,40.83
2018-02-08T12:05:31.121Z,41.95
2018-02-08T12:07:58.721Z,42.65
2018-02-08T12:10:26.321Z,42.10
2018-02-08T12:12:53.906Z,40.55
2018-02-08T12:15:21.502Z,42.08
2018-02-08T12:17:49.098Z,41.15
2018-02-08T12:20:16.733Z,41.05
2018-02-08T12:22:45.097Z,39.22
2018-02-08T12:25:12.687Z,39.35
2018-02-08T12:27:42.066Z,45.10
2018-02-08T12:30:09.687Z,41.15
2018-02-08T12:32:37.282Z,42.13
2018-02-08T12:35:04.871Z,37.15
2018-02-08T12:37:32.462Z,49.97
2018-02-08T12:40:00.824Z,39.58
2018-02-08T12:42:28.415Z,40.53
2018-02-08T12:44:56.005Z,43.15
2018-02-08T12:47:23.595Z,45.03
2018-02-08T12:49:51.183Z,45.17
2018-02-08T12:52:18.816Z,41.15
2018-02-08T12:54:46.410Z,38.15
2018-02-08T12:57:14.049Z,40.60
2018-02-08T12:59:41.645Z,38.17
2018-02-08T13:02:09.246Z,40.17
2018-02-08T13:04:37.715Z,65.37
2018-02-08T13:07:06.115Z,60.38
2018-02-08T13:09:33.709Z,43.45
2018-02-08T13:12:01.337Z,41.22
2018-02-08T13:14:28.940Z,43.33
2018-02-08T13:16:56.539Z,43.38
2018-02-08T13:19:24.167Z,47.53
2018-02-08T13:21:51.755Z,42.90
2018-02-08T13:24:19.394Z,44.42
2018-02-08T13:26:46.998Z,44.30
2018-02-08T13:29:14.626Z,48.17
2018-02-08T13:31:42.839Z,46.85
2018-02-08T13:34:10.429Z,43.55
2018-02-08T13:36:47.947Z,43.38
2018-02-08T13:39:30.416Z,43.33
2018-02-08T13:42:13.655Z,44.25
2018-02-08T13:44:41.254Z,45.03
2018-02-08T13:47:25.379Z,45.25
2018-02-08T13:50:02.923Z,43.53
2018-02-08T13:52:36.179Z,44.40
2018-02-08T13:55:04.624Z,43.60
2018-02-08T13:57:50.764Z,43.55
2018-02-08T14:00:33.274Z,44.05
2018-02-08T14:03:00.894Z,44.05
2018-02-08T14:05:28.494Z,45.70
2018-02-08T14:07:56.096Z,45.97
2018-02-08T14:10:23.696Z,45.42
2018-02-08T14:12:51.285Z,47.72
2018-02-08T14:15:18.883Z,46.63
2018-02-08T14:17:46.483Z,46.05
2018-02-08T14:20:14.080Z,46.08
2018-02-08T14:22:41.671Z,49.25
2018-02-08T14:25:09.264Z,47.53
2018-02-08T14:27:37.630Z,47.97
2018-02-08T14:30:05.238Z,49.55
2018-02-08T14:32:32.827Z,51.15
2018-02-08T14:35:00.459Z,50.58
2018-02-08T14:37:28.053Z,49.10
2018-02-08T14:39:55.666Z,48.25
2018-02-08T14:42:24.023Z,49.20
2018-02-08T14:44:51.615Z,49.45
2018-02-08T14:47:19.262Z,49.75
2018-02-08T14:49:46.862Z,52.15
2018-02-08T14:52:14.456Z,51.40
2018-02-08T14:54:42.055Z,49.08
2018-02-08T14:57:09.713Z,51.30
2018-02-08T14:59:37.302Z,51.70
2018-02-08T15:02:04.902Z,52.72
2018-02-08T15:04:32.506Z,52.70
2018-02-08T15:07:00.107Z,52.72
2018-02-08T15:09:28.523Z,52.92
2018-02-08T15:11:56.147Z,51.50
2018-02-08T15:14:23.745Z,49.35
2018-02-08T15:16:51.376Z,51.03
2018-02-08T15:19:18.970Z,52.15
2018-02-08T15:21:46.583Z,50.00
2018-02-08T15:24:14.194Z,52.25
2018-02-08T15:26:41.796Z,53.63
2018-02-08T15:29:09.455Z,50.55
2018-02-08T15:31:37.054Z,50.30
2018-02-08T15:34:04.654Z,51.35
2018-02-08T15:36:32.310Z,52.72
2018-02-08T15:39:00.704Z,52.08
2018-02-08T15:41:28.306Z,53.97
2018-02-08T15:43:55.943Z,48.58
2018-02-08T15:46:23.655Z,48.30
2018-02-08T15:48:51.287Z,52.00
2018-02-08T15:51:18.911Z,49.47
2018-02-08T15:53:47.287Z,49.75
2018-02-08T15:56:14.878Z,49.08
2018-02-08T15:58:42.471Z,53.22
2018-02-08T16:01:10.074Z,51.10
2018-02-08T16:03:37.678Z,49.10
2018-02-08T16:06:05.392Z,50.40
2018-02-08T16:08:33.039Z,50.63
2018-02-08T16:11:00.698Z,47.13
2018-02-08T16:13:28.401Z,50.60
2018-02-08T16:15:56.003Z,52.22
2018-02-08T16:18:24.363Z,47.22
2018-02-08T16:20:51.958Z,49.92
2018-02-08T16:23:19.561Z,50.63
2018-02-08T16:25:47.168Z,50.65
2018-02-08T16:28:14.834Z,51.42
2018-02-08T16:30:42.431Z,51.95
2018-02-08T16:33:10.043Z,50.33
2018-02-08T16:35:37.651Z,50.15
2018-02-08T16:38:05.266Z,51.03
2018-02-08T16:40:32.863Z,54.90
2018-02-08T16:43:01.255Z,53.42
2018-02-08T16:45:29.614Z,50.15
2018-02-08T16:47:57.211Z,50.00
2018-02-08T16:50:24.799Z,50.47
2018-02-08T16:52:52.508Z,51.65
2018-02-08T16:55:20.100Z,52.72
2018-02-08T16:57:48.523Z,50.63
2018-02-08T17:00:16.120Z,53.40
2018-02-08T17:02:43.729Z,54.20
2018-02-08T17:05:11.343Z,53.15
2018-02-08T17:07:38.959Z,57.10
2018-02-08T17:10:06.555Z,52.30
2018-02-08T17:12:34.171Z,53.78
2018-02-08T17:15:02.542Z,52.67
2018-02-08T17:17:30.915Z,53.53
2018-02-08T17:19:58.519Z,54.50
2018-02-08T17:22:26.169Z,52.10
2018-02-08T17:24:54.547Z,51.08
2018-02-08T17:27:22.143Z,52.90
2018-02-08T17:29:49.746Z,53.58
2018-02-08T17:32:17.406Z,53.13
2018-02-08T17:34:45.006Z,52.38
2018-02-08T17:37:12.609Z,51.45
2018-02-08T17:39:40.254Z,51.37
2018-02-08T17:42:07.851Z,52.70
2018-02-08T17:44:35.476Z,53.97
2018-02-08T17:47:03.834Z,51.13
2018-02-08T17:49:31.429Z,53.22
2018-02-08T17:51:59.028Z,52.22
2018-02-08T17:54:26.638Z,51.65
2018-02-08T17:56:54.998Z,49.28
2018-02-08T17:59:22.586Z,51.85
2018-02-08T18:01:50.978Z,51.33
2018-02-08T18:04:18.583Z,51.60
2018-02-08T18:06:46.183Z,59.65
2018-02-08T18:09:13.778Z,54.83
2018-02-08T18:11:42.149Z,52.60
2018-02-08T18:14:10.518Z,50.40
2018-02-08T18:16:38.118Z,48.92
2018-02-08T18:19:05.761Z,52.38
2018-02-08T18:21:34.119Z,51.40
2018-02-08T18:24:01.720Z,51.03
2018-02-08T18:26:29.326Z,52.10
2018-02-08T18:28:56.921Z,51.78
2018-02-08T18:31:24.560Z,51.55
2018-02-08T18:33:52.170Z,52.20
2018-02-08T18:36:19.762Z,50.70
2018-02-08T18:38:47.407Z,51.75
2018-02-08T18:41:15.010Z,48.65
2018-02-08T18:43:42.607Z,51.47
2018-02-08T18:46:10.211Z,50.05
2018-02-08T18:48:38.571Z,51.45
2018-02-08T18:51:06.175Z,47.60
2018-02-08T18:53:33.783Z,53.05
2018-02-08T18:56:01.387Z,50.10
2018-02-08T18:58:29.762Z,50.65
2018-02-08T19:00:58.119Z,52.85
2018-02-08T19:03:25.758Z,50.90
2018-02-08T19:05:53.354Z,49.35
2018-02-08T19:08:20.977Z,54.40
2018-02-08T19:10:48.574Z,73.18
2018-02-08T19:13:16.192Z,62.08
2018-02-08T19:15:43.799Z,54.10
2018-02-08T19:18:11.409Z,54.97
2018-02-08T19:20:39.775Z,51.10
2018-02-08T19:23:07.372Z,51.00
2018-02-08T19:25:34.973Z,48.72
2018-02-08T19:28:02.564Z,50.38
2018-02-08T19:30:30.206Z,50.53
2018-02-08T19:32:57.807Z,52.22
2018-02-08T19:35:26.167Z,49.10
2018-02-08T19:37:53.786Z,49.50
2018-02-08T19:40:21.431Z,50.58
2018-02-08T19:42:49.793Z,50.15
2018-02-08T19:45:17.391Z,53.45
2018-02-08T19:47:45.006Z,51.67
2018-02-08T19:50:12.605Z,51.55
2018-02-08T19:52:40.202Z,50.17
2018-02-08T19:55:07.811Z,50.83
2018-02-08T19:57:35.436Z,49.95
2018-02-08T20:00:03.062Z,51.72
2018-02-08T20:02:31.473Z,50.17
2018-02-08T20:04:59.069Z,53.45
2018-02-08T20:07:26.667Z,53.05
2018-02-08T20:09:54.331Z,55.58
2018-02-08T20:12:21.935Z,53.78
2018-02-08T20:14:49.553Z,54.70
2018-02-08T20:17:17.159Z,52.30
2018-02-08T20:19:44.754Z,51.53
2018-02-08T20:22:12.342Z,53.70
2018-02-08T20:24:39.947Z,54.95
2018-02-08T20:27:07.542Z,52.47
2018-02-08T20:29:35.134Z,53.72
2018-02-08T20:32:02.732Z,52.78
2018-02-08T20:34:31.098Z,52.33
2018-02-08T20:37:01.468Z,54.25
2018-02-08T20:39:29.072Z,52.83
2018-02-08T20:41:56.673Z,50.38
2018-02-08T20:44:25.036Z,52.08
2018-02-08T20:46:52.639Z,55.65
2018-02-08T20:49:20.239Z,53.42
2018-02-08T20:51:47.882Z,54.85
2018-02-08T20:54:15.479Z,54.67
2018-02-08T20:56:43.087Z,53.60
2018-02-08T20:59:10.682Z,52.40
2018-02-08T21:01:38.279Z,52.28
2018-02-08T21:04:05.934Z,50.20
2018-02-08T21:06:33.531Z,50.45
2018-02-08T21:09:01.141Z,49.65
2018-02-08T21:11:28.798Z,50.25
2018-02-08T21:13:56.401Z,49.95
2018-02-08T21:16:24.010Z,53.50
2018-02-08T21:18:51.619Z,54.30
2018-02-08T21:21:19.218Z,49.60
2018-02-08T21:23:46.823Z,51.80
2018-02-08T21:26:14.420Z,52.45
2018-02-08T21:28:42.025Z,51.42
2018-02-08T21:31:10.401Z,51.03
2018-02-08T21:33:38.003Z,50.10
2018-02-08T21:36:05.608Z,50.67
2018-02-08T21:38:33.213Z,53.08
2018-02-08T21:41:00.852Z,52.33
2018-02-08T21:43:28.450Z,51.28
2018-02-08T21:45:56.050Z,51.45
2018-02-08T21:48:23.654Z,52.70
2018-02-08T21:50:51.247Z,52.08
2018-02-08T21:53:18.861Z,52.85
2018-02-08T21:55:46.508Z,51.33
2018-02-08T21:58:14.148Z,51.40
2018-02-08T22:00:41.750Z,52.22
2018-02-08T22:03:09.358Z,51.75
2018-02-08T22:05:36.960Z,52.95
2018-02-08T22:08:04.554Z,51.85
2018-02-08T22:10:32.149Z,52.55
2018-02-08T22:12:59.752Z,49.72
2018-02-08T22:15:27.354Z,53.17
2018-02-08T22:17:54.995Z,55.38
2018-02-08T22:20:22.651Z,54.80
2018-02-08T22:22:50.254Z,51.50
2018-02-08T22:25:17.851Z,53.47
2018-02-08T22:27:45.484Z,55.28
2018-02-08T22:30:13.096Z,54.75
2018-02-08T22:32:40.687Z,58.33
2018-02-08T22:35:08.284Z,54.58
2018-02-08T22:37:35.886Z,53.90
2018-02-08T22:40:03.540Z,55.25
2018-02-08T22:42:31.898Z,53.83
2018-02-08T22:44:59.503Z,52.72
2018-02-08T22:47:27.124Z,55.03
2018-02-08T22:49:54.750Z,51.60
2018-02-08T22:52:22.350Z,56.05
2018-02-08T22:54:49.947Z,53.70
2018-02-08T22:57:17.540Z,54.17
2018-02-08T22:59:45.143Z,51.25
2018-02-08T23:02:12.743Z,52.75
2018-02-08T23:04:40.356Z,53.42
2018-02-08T23:07:07.960Z,55.08
2018-02-08T23:09:35.555Z,54.92
2018-02-08T23:12:03.164Z,51.78
2018-02-08T23:14:30.759Z,52.47
2018-02-08T23:16:58.506Z,53.92
2018-02-08T23:19:26.107Z,51.80
2018-02-08T23:21:53.706Z,50.97
2018-02-08T23:24:21.303Z,51.85
2018-02-08T23:26:48.943Z,52.22
2018-02-08T23:29:16.539Z,50.88
2018-02-08T23:31:44.143Z,50.67
2018-02-08T23:34:11.743Z,51.15
2018-02-08T23:36:39.336Z,49.83
2018-02-08T23:39:06.927Z,51.30
2018-02-08T23:41:35.312Z,50.00
2018-02-08T23:44:02.910Z,51.53
2018-02-08T23:46:30.523Z,50.20
2018-02-08T23:48:58.124Z,49.80
2018-02-08T23:51:25.730Z,50.75
2018-02-08T23:53:53.322Z,51.10
2018-02-08T23:56:20.927Z,51.28
2018-02-08T23:58:48.524Z,51.92
